Sabinal, Texas
Current Conditions -  °F | °C
As of 4:15 AM on Saturday 22 Nov 2014 (Local Time) from KUVA Reporting Station
Overcast Overcast  
Wind Chill: 68°   Ceiling: 1300
Heat Index: 68°   Visibility: 10mi
Dew Point: 66°   Wind: 9mph
Humidity: 92%   Direction: 130°SE
Pressure: 29.98"   Gusts: NA
Location:  29.32°N, 99.47°W
Report Text: KUVA 221015Z AUTO 13008KT 10SM BKN013 OVC018 20/19 A2998 RMK AO2 LTG DSNT N T02000187
Loading
Personal Weather Stations






























Interactive Weather Map New forecast layout! Learn more

10-Day Weather Forecast

Advertisements
Track Severe Weather on mobile